Jacarei, Brazil
Current Conditions -  °F | °C
As of 8:00 PM on Tuesday 21 Oct 2014 (Local Time) from SBSJ Reporting Station
Broken Clouds Broken Clouds  
Wind Chill: 68°   Ceiling: 7000
Heat Index: 68°   Visibility: 6mi
Dew Point: 50°   Wind: 12mph
Humidity: 52%   Direction: 130°SE
Pressure: 30.18"   Gusts: NA
Location:  23.3°S, 45.96°W
Report Text: SBSJ 212200Z 13010KT 9999 SCT025 BKN070 20/10 Q1022
Loading
Personal Weather Stations






























Interactive Weather Map
Tropical Storm Tracking
New forecast layout! Learn more

10-Day Weather Forecast

Advertisements
Track Severe Weather on mobile